createdAt,value
2022-10-19T00:00:33.570Z,94.21
2022-10-19T00:01:33.561Z,94.19
2022-10-19T00:02:33.580Z,94.19
2022-10-19T00:03:33.543Z,94.19
2022-10-19T00:04:33.551Z,94.16
2022-10-19T00:05:33.534Z,94.09
2022-10-19T00:06:33.499Z,94.04
2022-10-19T00:07:33.716Z,93.98
2022-10-19T00:08:33.495Z,93.94
2022-10-19T00:09:33.475Z,93.93
2022-10-19T00:10:33.460Z,93.93
2022-10-19T00:11:33.453Z,93.93
2022-10-19T00:12:33.439Z,93.88
2022-10-19T00:13:33.441Z,93.85
2022-10-19T00:14:33.441Z,93.82
2022-10-19T00:15:33.402Z,93.82
2022-10-19T00:16:33.423Z,93.85
2022-10-19T00:17:33.646Z,93.87
2022-10-19T00:18:33.386Z,93.84
2022-10-19T00:19:33.371Z,93.84
2022-10-19T00:20:33.343Z,93.81
2022-10-19T00:21:33.346Z,93.80
2022-10-19T00:22:33.549Z,93.80
2022-10-19T00:23:33.304Z,93.81
2022-10-19T00:24:33.303Z,93.77
2022-10-19T00:25:33.294Z,93.77
2022-10-19T00:26:33.267Z,93.75
2022-10-19T00:27:33.267Z,93.74
2022-10-19T00:28:33.318Z,93.73
2022-10-19T00:29:33.255Z,93.73
2022-10-19T00:30:33.215Z,93.74
2022-10-19T00:31:33.215Z,93.78
2022-10-19T00:32:33.423Z,93.76
2022-10-19T00:33:33.192Z,93.71
2022-10-19T00:34:33.194Z,93.69
2022-10-19T00:35:33.166Z,93.66
2022-10-19T00:36:33.151Z,93.66
2022-10-19T00:37:33.142Z,93.65
2022-10-19T00:38:33.129Z,93.64
2022-10-19T00:39:33.136Z,93.64
2022-10-19T00:40:33.104Z,93.64
2022-10-19T00:41:33.104Z,93.61
2022-10-19T00:42:33.351Z,93.60
2022-10-19T00:43:33.075Z,93.54
2022-10-19T00:44:33.075Z,93.55
2022-10-19T00:45:33.047Z,93.54
2022-10-19T00:46:33.034Z,93.51
2022-10-19T00:47:33.024Z,93.51
2022-10-19T00:48:33.016Z,93.55
2022-10-19T00:49:33.023Z,93.59
2022-10-19T00:50:32.991Z,93.64
2022-10-19T00:51:32.976Z,93.62
2022-10-19T00:52:33.258Z,93.61
2022-10-19T00:53:32.967Z,93.59
2022-10-19T00:54:32.944Z,93.44
2022-10-19T00:55:32.929Z,93.38
2022-10-19T00:56:32.916Z,93.38
2022-10-19T00:57:32.906Z,93.37
2022-10-19T00:58:32.906Z,93.37
2022-10-19T00:59:32.901Z,93.39
2022-10-19T01:00:32.865Z,93.35
2022-10-19T01:01:33.022Z,93.31
2022-10-19T01:02:33.103Z,93.32
2022-10-19T01:03:32.855Z,93.35
2022-10-19T01:04:32.855Z,93.44
2022-10-19T01:05:32.847Z,93.46
2022-10-19T01:06:32.805Z,93.51
2022-10-19T01:07:41.619Z,93.47
2022-10-19T01:08:32.783Z,93.43
2022-10-19T01:09:32.796Z,93.40
2022-10-19T01:10:32.759Z,93.42
2022-10-19T01:11:32.769Z,93.46
2022-10-19T01:12:32.735Z,93.46
2022-10-19T01:13:32.733Z,93.47
2022-10-19T01:14:32.723Z,93.50
2022-10-19T01:15:32.702Z,93.51
2022-10-19T01:16:32.696Z,93.49
2022-10-19T01:17:33.096Z,93.51
2022-10-19T01:18:32.652Z,93.48
2022-10-19T01:19:32.655Z,93.46
2022-10-19T01:20:32.648Z,93.45
2022-10-19T01:21:32.634Z,93.49
2022-10-19T01:22:32.606Z,93.54
2022-10-19T01:23:32.604Z,93.50
2022-10-19T01:24:34.827Z,93.57
2022-10-19T01:25:32.597Z,93.60
2022-10-19T01:26:32.564Z,93.61
2022-10-19T01:27:32.821Z,93.62
2022-10-19T01:28:32.624Z,93.61
2022-10-19T01:29:32.532Z,93.59
2022-10-19T01:30:32.536Z,93.58
2022-10-19T01:31:32.514Z,93.58
2022-10-19T01:32:32.497Z,93.54
2022-10-19T01:33:32.490Z,93.55
2022-10-19T01:34:32.475Z,93.52
2022-10-19T01:35:32.487Z,93.50
2022-10-19T01:36:32.449Z,93.48
2022-10-19T01:37:32.679Z,93.47
2022-10-19T01:38:32.427Z,93.40
2022-10-19T01:39:32.426Z,93.34
2022-10-19T01:40:32.435Z,93.32
2022-10-19T01:41:32.397Z,93.30
2022-10-19T01:42:32.386Z,93.24
2022-10-19T01:43:32.368Z,93.23
2022-10-19T01:44:32.356Z,93.18
2022-10-19T01:45:32.375Z,93.06
2022-10-19T01:46:32.340Z,92.97
2022-10-19T01:47:32.785Z,92.94
2022-10-19T01:48:32.312Z,92.93
2022-10-19T01:49:32.306Z,92.94
2022-10-19T01:50:32.309Z,92.98
2022-10-19T01:51:32.278Z,92.98
2022-10-19T01:52:32.540Z,92.95
2022-10-19T01:53:32.260Z,92.99
2022-10-19T01:54:32.246Z,93.05
2022-10-19T01:55:32.246Z,93.07
2022-10-19T01:56:32.216Z,93.07
2022-10-19T01:57:32.218Z,93.08
2022-10-19T01:58:32.201Z,93.08
2022-10-19T01:59:32.186Z,93.12
2022-10-19T02:00:32.177Z,93.12
2022-10-19T02:01:32.192Z,93.11
2022-10-19T02:02:32.391Z,93.05
2022-10-19T02:03:32.140Z,92.97
2022-10-19T02:04:32.140Z,92.90
2022-10-19T02:05:32.119Z,92.88
2022-10-19T02:06:32.118Z,92.91
2022-10-19T02:07:32.101Z,92.94
2022-10-19T02:08:32.080Z,92.94
2022-10-19T02:09:32.075Z,92.95
2022-10-19T02:10:32.051Z,92.98
2022-10-19T02:11:32.099Z,92.96
2022-10-19T02:12:32.285Z,92.99
2022-10-19T02:13:32.030Z,92.99
2022-10-19T02:14:32.014Z,92.98
2022-10-19T02:15:32.004Z,92.97
2022-10-19T02:16:31.992Z,92.96
2022-10-19T02:17:32.000Z,92.93
2022-10-19T02:18:31.969Z,92.95
2022-10-19T02:19:31.963Z,93.01
2022-10-19T02:20:31.944Z,93.01
2022-10-19T02:21:31.935Z,92.97
2022-10-19T02:22:32.155Z,92.97
2022-10-19T02:23:31.923Z,92.92
2022-10-19T02:24:31.899Z,92.91
2022-10-19T02:25:31.889Z,92.92
2022-10-19T02:26:31.872Z,92.92
2022-10-19T02:27:31.860Z,92.93
2022-10-19T02:28:31.872Z,92.92
2022-10-19T02:29:31.838Z,92.92
2022-10-19T02:30:31.834Z,92.87
2022-10-19T02:31:31.823Z,92.86
2022-10-19T02:32:32.134Z,92.85
2022-10-19T02:33:31.832Z,92.85
2022-10-19T02:34:31.779Z,92.85
2022-10-19T02:35:31.772Z,92.87
2022-10-19T02:36:31.760Z,92.88
2022-10-19T02:37:31.819Z,92.84
2022-10-19T02:38:31.751Z,92.80
2022-10-19T02:39:31.734Z,92.80
2022-10-19T02:40:31.712Z,92.80
2022-10-19T02:41:31.706Z,92.74
2022-10-19T02:42:31.863Z,92.74
2022-10-19T02:43:31.704Z,92.61
2022-10-19T02:44:31.674Z,92.50
2022-10-19T02:45:31.652Z,92.37
2022-10-19T02:46:31.687Z,92.27
2022-10-19T02:47:31.886Z,92.22
2022-10-19T02:48:31.633Z,92.26
2022-10-19T02:49:31.603Z,92.26
2022-10-19T02:50:31.601Z,92.11
2022-10-19T02:51:31.593Z,91.88
2022-10-19T02:52:31.573Z,91.87
2022-10-19T02:53:31.563Z,91.86
2022-10-19T02:54:31.573Z,91.84
2022-10-19T02:55:31.618Z,91.77
2022-10-19T02:56:31.537Z,91.74
2022-10-19T02:57:31.777Z,91.77
2022-10-19T02:58:31.504Z,91.71
2022-10-19T02:59:31.505Z,91.64
2022-10-19T03:00:31.496Z,91.63
2022-10-19T03:01:31.471Z,91.58
2022-10-19T03:02:31.453Z,91.53
2022-10-19T03:03:31.453Z,91.52
2022-10-19T03:04:31.453Z,91.46
2022-10-19T03:05:31.425Z,91.42
2022-10-19T03:06:31.403Z,91.35
2022-10-19T03:07:31.608Z,91.35
2022-10-19T03:08:31.396Z,91.43
2022-10-19T03:09:31.385Z,91.42
2022-10-19T03:10:31.379Z,91.37
2022-10-19T03:11:31.358Z,91.38
2022-10-19T03:12:31.351Z,91.36
2022-10-19T03:13:31.326Z,91.42
2022-10-19T03:14:31.326Z,91.40
2022-10-19T03:15:31.323Z,91.40
2022-10-19T03:16:31.307Z,91.45
2022-10-19T03:17:31.491Z,91.49
2022-10-19T03:18:31.287Z,91.51
2022-10-19T03:19:31.266Z,91.53
2022-10-19T03:20:31.279Z,91.57
2022-10-19T03:21:31.246Z,91.64
2022-10-19T03:22:31.229Z,91.70
2022-10-19T03:23:31.220Z,91.71
2022-10-19T03:24:31.207Z,91.70
2022-10-19T03:25:31.196Z,91.72
2022-10-19T03:26:31.211Z,91.73
2022-10-19T03:27:31.513Z,91.76
2022-10-19T03:28:31.245Z,91.73
2022-10-19T03:29:31.146Z,91.73
2022-10-19T03:30:31.143Z,91.73
2022-10-19T03:31:31.157Z,91.73
2022-10-19T03:32:31.118Z,91.72
2022-10-19T03:33:31.115Z,91.68
2022-10-19T03:34:31.090Z,91.61
2022-10-19T03:35:31.066Z,91.62
2022-10-19T03:36:31.066Z,91.66
2022-10-19T03:37:31.225Z,91.64
2022-10-19T03:38:31.041Z,91.69
2022-10-19T03:39:31.032Z,91.73
2022-10-19T03:40:31.026Z,91.73
2022-10-19T03:41:31.015Z,91.75
2022-10-19T03:42:31.010Z,91.77
2022-10-19T03:43:30.989Z,91.78
2022-10-19T03:44:30.977Z,91.88
2022-10-19T03:45:30.966Z,91.95
2022-10-19T03:46:30.951Z,92.03
2022-10-19T03:47:31.066Z,92.12
2022-10-19T03:48:30.929Z,92.18
2022-10-19T03:49:30.922Z,92.24
2022-10-19T03:50:30.909Z,92.28
2022-10-19T03:51:30.898Z,92.32
2022-10-19T03:52:30.910Z,92.33
2022-10-19T03:53:32.555Z,92.33
2022-10-19T03:54:30.870Z,92.33
2022-10-19T03:55:30.847Z,92.33
2022-10-19T03:56:30.839Z,92.34
2022-10-19T03:57:30.981Z,92.34
2022-10-19T03:58:30.829Z,92.36
2022-10-19T03:59:30.800Z,92.39
2022-10-19T04:00:30.797Z,92.36
2022-10-19T04:01:30.830Z,92.39
2022-10-19T04:02:30.772Z,92.39
2022-10-19T04:03:30.795Z,92.38
2022-10-19T04:04:30.775Z,92.40
2022-10-19T04:05:30.734Z,92.43
2022-10-19T04:06:30.725Z,92.49
2022-10-19T04:07:30.779Z,92.51
2022-10-19T04:08:30.730Z,92.50
2022-10-19T04:09:30.718Z,92.49
2022-10-19T04:10:30.682Z,92.48
2022-10-19T04:11:30.669Z,92.53
2022-10-19T04:12:30.654Z,92.57
2022-10-19T04:13:30.654Z,92.59
2022-10-19T04:14:33.109Z,92.61
2022-10-19T04:15:31.621Z,92.64
2022-10-19T04:16:30.613Z,92.67
2022-10-19T04:17:30.676Z,92.68
2022-10-19T04:18:30.591Z,92.70
2022-10-19T04:19:30.594Z,92.68
2022-10-19T04:20:30.563Z,92.71
2022-10-19T04:21:30.551Z,92.69
2022-10-19T04:22:30.541Z,92.70
2022-10-19T04:23:30.529Z,92.70
2022-10-19T04:24:30.535Z,92.68
2022-10-19T04:25:30.511Z,92.70
2022-10-19T04:26:30.510Z,92.70
2022-10-19T04:27:30.564Z,92.70
2022-10-19T04:28:30.524Z,92.70
2022-10-19T04:29:30.893Z,92.68
2022-10-19T04:30:30.457Z,92.69
2022-10-19T04:31:30.435Z,92.67
2022-10-19T04:32:30.433Z,92.69
2022-10-19T04:33:30.417Z,92.69
2022-10-19T04:34:30.425Z,92.69
2022-10-19T04:35:30.393Z,92.71
2022-10-19T04:36:30.381Z,92.71
2022-10-19T04:37:30.370Z,92.71
2022-10-19T04:38:30.364Z,92.68
2022-10-19T04:39:30.347Z,92.65
2022-10-19T04:40:30.354Z,92.65
2022-10-19T04:41:30.325Z,92.67
2022-10-19T04:42:30.324Z,92.69
2022-10-19T04:43:30.293Z,92.67
2022-10-19T04:44:30.298Z,92.69
2022-10-19T04:45:30.288Z,92.69
2022-10-19T04:46:30.284Z,92.67
2022-10-19T04:47:30.286Z,92.64
2022-10-19T04:48:30.247Z,92.64
2022-10-19T04:49:30.234Z,92.64
2022-10-19T04:50:30.228Z,92.65
2022-10-19T04:51:30.225Z,92.65
2022-10-19T04:52:30.211Z,92.66
2022-10-19T04:53:30.188Z,92.66
2022-10-19T04:54:30.174Z,92.64
2022-10-19T04:55:30.165Z,92.64
2022-10-19T04:56:30.185Z,92.65
2022-10-19T04:57:30.143Z,92.65
2022-10-19T04:58:30.136Z,92.65
2022-10-19T04:59:30.118Z,92.59
2022-10-19T05:00:30.112Z,92.56
2022-10-19T05:01:30.097Z,92.52
2022-10-19T05:02:30.109Z,92.49
2022-10-19T05:03:30.080Z,92.49
2022-10-19T05:04:30.064Z,92.48
2022-10-19T05:05:30.052Z,92.48
2022-10-19T05:06:30.052Z,92.46
2022-10-19T05:07:30.033Z,92.44
2022-10-19T05:08:30.019Z,92.44
2022-10-19T05:09:30.012Z,92.40
2022-10-19T05:10:29.996Z,92.41
2022-10-19T05:11:29.986Z,92.33
2022-10-19T05:12:29.969Z,92.30
2022-10-19T05:13:29.975Z,92.17
2022-10-19T05:14:29.954Z,92.20
2022-10-19T05:15:29.938Z,92.23
2022-10-19T05:16:29.941Z,92.22
2022-10-19T05:17:29.919Z,92.21
2022-10-19T05:18:29.931Z,92.18
2022-10-19T05:19:29.888Z,92.17
2022-10-19T05:20:29.883Z,92.15
2022-10-19T05:21:29.859Z,92.11
2022-10-19T05:22:29.860Z,92.07
2022-10-19T05:23:29.856Z,92.07
2022-10-19T05:24:29.838Z,92.12
2022-10-19T05:25:29.818Z,92.15
2022-10-19T05:26:29.813Z,92.20
2022-10-19T05:27:29.804Z,92.22
2022-10-19T05:28:29.849Z,92.23
2022-10-19T05:29:29.778Z,92.25
2022-10-19T05:30:29.770Z,92.25
2022-10-19T05:31:29.773Z,92.25
2022-10-19T05:32:29.752Z,92.27
2022-10-19T05:33:29.729Z,92.27
2022-10-19T05:34:29.735Z,92.29
2022-10-19T05:35:29.709Z,92.30
2022-10-19T05:36:29.716Z,92.30
2022-10-19T05:37:29.680Z,92.28
2022-10-19T05:38:29.685Z,92.27
2022-10-19T05:39:29.689Z,92.27
2022-10-19T05:40:29.664Z,92.26
2022-10-19T05:41:29.640Z,92.27
2022-10-19T05:42:29.634Z,92.27
2022-10-19T05:43:29.623Z,92.28
2022-10-19T05:44:29.667Z,92.25
2022-10-19T05:45:29.602Z,92.25
2022-10-19T05:46:29.657Z,92.23
2022-10-19T05:47:31.062Z,92.22
2022-10-19T05:48:29.567Z,92.23
2022-10-19T05:49:29.572Z,92.24
2022-10-19T05:50:29.549Z,92.22
2022-10-19T05:51:29.528Z,92.21
2022-10-19T05:52:29.520Z,92.16
2022-10-19T05:53:29.544Z,92.10
2022-10-19T05:54:29.512Z,92.07
2022-10-19T05:55:29.478Z,91.98
2022-10-19T05:56:29.468Z,91.97
2022-10-19T05:57:29.464Z,92.01
2022-10-19T05:58:29.452Z,92.01
2022-10-19T05:59:29.434Z,92.03
2022-10-19T06:00:29.442Z,92.02
2022-10-19T06:01:29.454Z,92.03
2022-10-19T06:02:29.402Z,91.99
2022-10-19T06:03:29.390Z,91.98
2022-10-19T06:04:29.405Z,91.88
2022-10-19T06:05:29.383Z,91.70
2022-10-19T06:06:29.391Z,91.73
2022-10-19T06:07:29.350Z,91.84
2022-10-19T06:08:29.334Z,91.88
2022-10-19T06:09:29.323Z,91.87
2022-10-19T06:10:29.334Z,91.88
2022-10-19T06:11:29.292Z,91.88
2022-10-19T06:12:29.285Z,91.89
2022-10-19T06:13:29.272Z,91.88
2022-10-19T06:14:29.261Z,91.92
2022-10-19T06:15:29.252Z,91.92
2022-10-19T06:16:29.264Z,91.92
2022-10-19T06:17:29.387Z,91.93
2022-10-19T06:18:29.242Z,91.91
2022-10-19T06:19:29.216Z,91.93
2022-10-19T06:20:29.194Z,92.00
2022-10-19T06:21:29.195Z,92.01
2022-10-19T06:22:29.175Z,92.07
2022-10-19T06:23:29.255Z,92.10
2022-10-19T06:24:29.156Z,92.16
2022-10-19T06:25:29.143Z,92.20
2022-10-19T06:26:29.125Z,92.19
2022-10-19T06:27:29.172Z,92.16
2022-10-19T06:28:29.117Z,92.13
2022-10-19T06:29:29.100Z,92.11
2022-10-19T06:30:29.141Z,92.10
2022-10-19T06:31:29.063Z,92.08
2022-10-19T06:32:29.082Z,92.08
2022-10-19T06:33:29.052Z,92.08
2022-10-19T06:34:29.143Z,92.08
2022-10-19T06:35:29.044Z,92.07
2022-10-19T06:36:29.016Z,91.97
2022-10-19T06:37:29.005Z,91.97
2022-10-19T06:38:28.982Z,91.96
2022-10-19T06:39:28.978Z,91.88
2022-10-19T06:40:29.026Z,91.84
2022-10-19T06:41:28.956Z,91.77
2022-10-19T06:42:28.948Z,91.66
2022-10-19T06:43:28.948Z,91.57
2022-10-19T06:44:28.926Z,91.39
2022-10-19T06:45:32.295Z,91.28
2022-10-19T06:46:29.895Z,91.20
2022-10-19T06:47:28.922Z,91.06
2022-10-19T06:48:28.877Z,90.90
2022-10-19T06:49:28.878Z,90.76
2022-10-19T06:50:28.853Z,90.59
2022-10-19T06:51:28.839Z,90.47
2022-10-19T06:52:28.837Z,90.25
2022-10-19T06:53:28.818Z,90.00
2022-10-19T06:54:28.829Z,89.87
2022-10-19T06:55:28.798Z,89.74
2022-10-19T06:56:28.790Z,89.36
2022-10-19T06:57:28.770Z,89.26
2022-10-19T06:58:28.761Z,88.99
2022-10-19T06:59:28.768Z,88.90
2022-10-19T07:00:28.953Z,88.86
2022-10-19T07:01:28.833Z,88.81
2022-10-19T07:02:28.716Z,88.56
2022-10-19T07:03:28.707Z,88.54
2022-10-19T07:04:28.698Z,88.53
2022-10-19T07:05:28.698Z,88.47
2022-10-19T07:06:28.685Z,88.54
2022-10-19T07:07:28.684Z,88.58
2022-10-19T07:08:28.648Z,88.63
2022-10-19T07:09:28.638Z,88.62
2022-10-19T07:10:28.641Z,88.46
2022-10-19T07:11:28.614Z,88.25
2022-10-19T07:12:28.610Z,88.13
2022-10-19T07:13:28.595Z,87.88
2022-10-19T07:14:28.587Z,87.67
2022-10-19T07:15:28.573Z,87.56
2022-10-19T07:16:28.573Z,87.56
2022-10-19T07:17:28.550Z,87.54
2022-10-19T07:18:28.531Z,87.55
2022-10-19T07:19:28.526Z,87.48
2022-10-19T07:20:28.520Z,87.42
2022-10-19T07:21:28.498Z,87.59
2022-10-19T07:22:28.522Z,87.64
2022-10-19T07:23:28.482Z,87.57
2022-10-19T07:24:28.481Z,87.51
2022-10-19T07:25:28.468Z,87.51
2022-10-19T07:26:28.440Z,87.50
2022-10-19T07:27:28.430Z,87.44
2022-10-19T07:28:28.419Z,87.33
2022-10-19T07:29:28.404Z,87.27
2022-10-19T07:30:28.396Z,87.19
2022-10-19T07:31:28.406Z,87.15
2022-10-19T07:32:28.399Z,87.02
2022-10-19T07:33:28.354Z,86.82
2022-10-19T07:34:29.171Z,86.49
2022-10-19T07:35:28.344Z,86.38
2022-10-19T07:36:28.349Z,86.35
2022-10-19T07:37:28.315Z,86.26
2022-10-19T07:38:28.304Z,86.09
2022-10-19T07:39:28.293Z,85.66
2022-10-19T07:40:28.283Z,85.34
2022-10-19T07:41:28.301Z,84.70
2022-10-19T07:42:28.255Z,84.32
2022-10-19T07:43:28.242Z,84.05
2022-10-19T07:44:28.230Z,83.60
2022-10-19T07:45:28.227Z,83.19
2022-10-19T07:46:28.202Z,82.54
2022-10-19T07:47:28.213Z,81.47
2022-10-19T07:48:28.180Z,80.72
2022-10-19T07:49:28.190Z,79.92
2022-10-19T07:50:28.173Z,79.65
2022-10-19T07:52:29.905Z,78.18
2022-10-19T07:53:28.141Z,77.35
2022-10-19T07:54:28.120Z,76.39
2022-10-19T07:55:28.112Z,76.01
2022-10-19T07:56:28.103Z,75.31
2022-10-19T07:57:28.104Z,75.10
2022-10-19T07:58:28.085Z,74.41
2022-10-19T07:59:28.062Z,74.25
2022-10-19T08:00:28.120Z,73.35
2022-10-19T08:01:28.041Z,72.97
2022-10-19T08:02:34.995Z,72.79
2022-10-19T08:04:31.363Z,72.75
2022-10-19T08:04:55.976Z,72.06
2022-10-19T08:05:29.073Z,71.23
2022-10-19T08:06:27.978Z,71.60
2022-10-19T08:07:27.978Z,71.13
2022-10-19T08:08:28.013Z,71.55
2022-10-19T08:10:28.934Z,70.53
2022-10-19T08:11:27.926Z,70.34
2022-10-19T08:12:27.921Z,69.96
2022-10-19T08:13:27.908Z,69.80
2022-10-19T08:14:27.896Z,69.75
2022-10-19T08:15:27.887Z,69.17
2022-10-19T08:16:27.862Z,69.49
2022-10-19T08:17:27.856Z,70.02
2022-10-19T08:18:27.862Z,70.05
2022-10-19T08:19:27.850Z,69.33
2022-10-19T08:20:27.818Z,69.00
2022-10-19T08:21:27.819Z,69.21
2022-10-19T08:22:27.794Z,68.56
2022-10-19T08:23:27.780Z,68.76
2022-10-19T08:24:27.789Z,68.70
2022-10-19T08:25:27.766Z,68.42
2022-10-19T08:26:27.751Z,68.31
2022-10-19T08:27:27.769Z,68.23
2022-10-19T08:28:27.721Z,68.49
2022-10-19T08:29:30.638Z,68.56
2022-10-19T08:30:27.708Z,68.90
2022-10-19T08:31:27.691Z,68.99
2022-10-19T08:32:27.683Z,69.29
2022-10-19T08:33:27.671Z,69.59
2022-10-19T08:34:27.666Z,70.38
2022-10-19T08:35:27.641Z,71.15
2022-10-19T08:36:27.633Z,70.77
2022-10-19T08:37:40.757Z,71.34
2022-10-19T08:38:28.603Z,72.44
2022-10-19T08:39:27.623Z,73.01
2022-10-19T08:40:27.586Z,73.15
2022-10-19T08:41:27.583Z,72.57
2022-10-19T08:42:27.566Z,72.69
2022-10-19T08:43:27.564Z,72.82
2022-10-19T08:44:27.559Z,72.58
2022-10-19T08:45:27.545Z,72.54
2022-10-19T08:46:27.515Z,73.04
2022-10-19T08:47:27.513Z,72.93
2022-10-19T08:48:27.495Z,72.74
2022-10-19T08:49:27.508Z,72.98
2022-10-19T08:50:27.475Z,73.43
2022-10-19T08:51:27.467Z,73.25
2022-10-19T08:52:29.677Z,73.45
2022-10-19T08:53:28.461Z,73.36
2022-10-19T08:54:27.428Z,72.98
2022-10-19T08:55:27.435Z,73.15
2022-10-19T08:56:49.221Z,73.47
2022-10-19T08:57:28.415Z,73.98
2022-10-19T08:58:27.392Z,73.92
2022-10-19T08:59:27.372Z,73.52
2022-10-19T09:00:27.411Z,73.78
2022-10-19T09:01:27.383Z,74.26
2022-10-19T09:02:27.351Z,74.30
2022-10-19T09:03:37.738Z,74.31
2022-10-19T09:04:28.319Z,74.42
2022-10-19T09:05:27.324Z,74.79
2022-10-19T09:06:27.308Z,74.49
2022-10-19T09:07:27.440Z,74.70
2022-10-19T09:08:27.327Z,74.86
2022-10-19T09:09:27.257Z,74.40
2022-10-19T09:10:27.259Z,74.83
2022-10-19T09:11:27.236Z,74.62
2022-10-19T09:12:27.229Z,74.38
2022-10-19T09:13:36.464Z,74.50
2022-10-19T09:14:28.201Z,74.48
2022-10-19T09:15:27.209Z,74.06
2022-10-19T09:16:27.181Z,74.23
2022-10-19T09:17:27.170Z,74.63
2022-10-19T09:18:27.159Z,74.64
2022-10-19T09:19:27.147Z,74.66
2022-10-19T09:20:27.151Z,74.67
2022-10-19T09:21:33.425Z,74.70
2022-10-19T09:22:28.116Z,74.72
2022-10-19T09:23:27.101Z,74.84
2022-10-19T09:24:27.079Z,74.70
2022-10-19T09:25:27.100Z,75.08
2022-10-19T09:26:27.061Z,74.81
2022-10-19T09:27:27.061Z,74.64
2022-10-19T09:28:31.464Z,74.78
2022-10-19T09:29:28.035Z,74.40
2022-10-19T09:30:27.041Z,74.41
2022-10-19T09:31:30.402Z,74.62
2022-10-19T09:32:27.022Z,74.30
2022-10-19T09:33:26.986Z,74.33
2022-10-19T09:34:26.979Z,74.94
2022-10-19T09:35:26.984Z,75.15
2022-10-19T09:36:39.234Z,75.38
2022-10-19T09:37:27.961Z,75.17
2022-10-19T09:38:26.934Z,75.04
2022-10-19T09:39:29.348Z,74.77
2022-10-19T09:40:26.911Z,74.45
2022-10-19T09:41:26.911Z,74.10
2022-10-19T09:42:26.886Z,73.85
2022-10-19T09:43:26.882Z,74.74
2022-10-19T09:44:26.880Z,74.36
2022-10-19T09:45:26.871Z,74.58
2022-10-19T09:46:26.857Z,75.32
2022-10-19T09:47:26.828Z,75.42
2022-10-19T09:48:26.815Z,75.03
2022-10-19T09:49:26.804Z,75.17
2022-10-19T09:50:26.785Z,74.89
2022-10-19T09:51:26.796Z,74.40
2022-10-19T09:52:26.774Z,74.29
2022-10-19T09:53:26.759Z,75.17
2022-10-19T09:54:26.735Z,74.91
2022-10-19T09:55:26.748Z,75.29
2022-10-19T09:56:26.774Z,75.38
2022-10-19T09:57:26.705Z,74.94
2022-10-19T09:58:29.187Z,74.12
2022-10-19T09:59:27.696Z,74.28
2022-10-19T10:00:26.667Z,74.59
2022-10-19T10:01:33.107Z,73.78
2022-10-19T10:02:27.744Z,74.40
2022-10-19T10:03:26.648Z,74.80
2022-10-19T10:04:26.629Z,74.90
2022-10-19T10:05:26.625Z,74.08
2022-10-19T10:06:26.601Z,74.61
2022-10-19T10:07:26.619Z,74.36
2022-10-19T10:08:26.617Z,74.83
2022-10-19T10:09:26.579Z,74.79
2022-10-19T10:10:29.644Z,74.69
2022-10-19T10:11:26.549Z,74.50
2022-10-19T10:12:26.550Z,74.40
2022-10-19T10:13:26.531Z,74.36
2022-10-19T10:14:26.508Z,74.19
2022-10-19T10:15:26.499Z,74.36
2022-10-19T10:16:58.470Z,75.03
2022-10-19T10:17:26.494Z,75.64
2022-10-19T10:18:26.469Z,75.13
2022-10-19T10:19:27.251Z,74.73
2022-10-19T10:20:47.511Z,74.50
2022-10-19T10:21:26.500Z,74.94
2022-10-19T10:22:26.444Z,73.91
2022-10-19T10:23:26.412Z,74.24
2022-10-19T10:24:26.411Z,74.33
2022-10-19T10:25:26.389Z,74.08
2022-10-19T10:26:26.441Z,73.71
2022-10-19T10:27:26.384Z,73.80
2022-10-19T10:28:26.347Z,73.82
2022-10-19T10:29:26.347Z,73.80
2022-10-19T10:30:26.331Z,73.88
2022-10-19T10:31:26.322Z,74.13
2022-10-19T10:32:26.325Z,73.69
2022-10-19T10:33:43.749Z,74.58
2022-10-19T10:34:38.536Z,74.74
2022-10-19T10:35:27.270Z,74.95
2022-10-19T10:36:26.258Z,74.54
2022-10-19T10:37:26.274Z,74.50
2022-10-19T10:38:26.231Z,74.18
2022-10-19T10:39:26.221Z,74.46
2022-10-19T10:40:26.211Z,73.82
2022-10-19T10:41:26.208Z,73.42
2022-10-19T10:42:26.191Z,73.43
2022-10-19T10:43:26.221Z,74.07
2022-10-19T10:44:26.156Z,74.03
2022-10-19T10:45:26.155Z,73.48
2022-10-19T10:46:26.147Z,73.38
2022-10-19T10:47:26.154Z,73.27
2022-10-19T10:48:26.136Z,73.04
2022-10-19T10:49:26.115Z,73.20
2022-10-19T10:50:26.093Z,73.82
2022-10-19T10:51:26.083Z,74.10
2022-10-19T10:52:26.075Z,73.76
2022-10-19T10:53:26.066Z,73.53
2022-10-19T10:54:26.064Z,72.88
2022-10-19T10:55:26.032Z,72.65
2022-10-19T10:56:26.026Z,72.88
2022-10-19T10:57:26.021Z,73.31
2022-10-19T10:58:29.596Z,73.36
2022-10-19T10:59:26.004Z,73.55
2022-10-19T11:00:25.984Z,73.15
2022-10-19T11:01:26.033Z,73.47
2022-10-19T11:03:25.947Z,73.31
2022-10-19T11:04:25.955Z,73.01
2022-10-19T11:05:25.927Z,72.90
2022-10-19T11:06:25.915Z,73.32
2022-10-19T11:07:25.908Z,73.71
2022-10-19T11:08:25.927Z,73.63
2022-10-19T11:09:25.877Z,73.73
2022-10-19T11:10:25.881Z,73.24
2022-10-19T11:11:25.852Z,73.60
2022-10-19T11:12:25.849Z,73.62
2022-10-19T11:13:25.835Z,73.85
2022-10-19T11:14:25.817Z,73.62
2022-10-19T11:15:25.846Z,73.67
2022-10-19T11:16:25.797Z,73.61
2022-10-19T11:17:25.788Z,73.69
2022-10-19T11:18:25.771Z,74.40
2022-10-19T11:19:25.777Z,74.18
2022-10-19T11:20:25.778Z,73.56
2022-10-19T11:21:25.770Z,73.60
2022-10-19T11:22:27.069Z,73.24
2022-10-19T11:23:25.720Z,72.92
2022-10-19T11:24:25.731Z,73.04
2022-10-19T11:25:25.699Z,72.94
2022-10-19T11:26:25.698Z,73.17
2022-10-19T11:27:25.697Z,73.57
2022-10-19T11:28:25.649Z,73.65
2022-10-19T11:29:25.672Z,73.17
2022-10-19T11:30:25.626Z,73.21
2022-10-19T11:31:25.629Z,73.12
2022-10-19T11:32:25.630Z,73.12
2022-10-19T11:33:25.600Z,72.74
2022-10-19T11:34:26.097Z,72.94
2022-10-19T11:35:25.580Z,72.89
2022-10-19T11:36:25.567Z,73.16
2022-10-19T11:37:25.550Z,73.45
2022-10-19T11:38:29.790Z,73.34
2022-10-19T11:39:25.528Z,73.49
2022-10-19T11:40:25.532Z,72.97
2022-10-19T11:41:25.510Z,73.27
2022-10-19T11:42:25.521Z,73.47
2022-10-19T11:43:27.033Z,73.16
2022-10-19T11:44:25.482Z,73.31
2022-10-19T11:45:25.464Z,73.34
2022-10-19T11:46:25.446Z,72.87
2022-10-19T11:47:25.468Z,72.66
2022-10-19T11:48:25.443Z,72.44
2022-10-19T11:49:25.422Z,73.02
2022-10-19T11:50:27.117Z,72.96
2022-10-19T11:51:27.149Z,72.66
2022-10-19T11:52:25.390Z,72.42
2022-10-19T11:53:25.389Z,72.74
2022-10-19T11:54:25.355Z,72.89
2022-10-19T11:55:25.343Z,72.73
2022-10-19T11:56:35.015Z,72.40
2022-10-19T11:57:26.324Z,72.31
2022-10-19T11:58:25.464Z,72.39
2022-10-19T11:59:25.296Z,72.62
2022-10-19T12:00:38.843Z,72.39
2022-10-19T12:01:26.281Z,72.46
2022-10-19T12:02:25.326Z,72.53
2022-10-19T12:03:25.275Z,72.49
2022-10-19T12:04:25.253Z,72.48
2022-10-19T12:05:25.229Z,72.77
2022-10-19T12:06:25.224Z,72.79
2022-10-19T12:07:25.206Z,72.76
2022-10-19T12:08:32.331Z,72.77
2022-10-19T12:09:26.885Z,72.23
2022-10-19T12:10:25.187Z,72.64
2022-10-19T12:11:25.169Z,72.79
2022-10-19T12:12:25.165Z,71.49
2022-10-19T12:13:25.148Z,71.91
2022-10-19T12:14:25.153Z,72.72
2022-10-19T12:15:25.105Z,72.13
2022-10-19T12:16:25.112Z,71.85
2022-10-19T12:17:25.098Z,72.38
2022-10-19T12:18:25.085Z,72.09
2022-10-19T12:19:25.097Z,71.68
2022-10-19T12:20:25.060Z,71.46
2022-10-19T12:21:25.047Z,71.84
2022-10-19T12:22:25.037Z,71.87
2022-10-19T12:23:25.019Z,71.85
2022-10-19T12:24:25.027Z,71.63
2022-10-19T12:25:25.002Z,71.76
2022-10-19T12:26:25.001Z,72.16
2022-10-19T12:27:24.982Z,72.22
2022-10-19T12:28:24.954Z,72.09
2022-10-19T12:29:24.988Z,71.54
2022-10-19T12:30:24.961Z,71.86
2022-10-19T12:31:24.930Z,72.58
2022-10-19T12:32:24.931Z,72.74
2022-10-19T12:33:24.904Z,72.22
2022-10-19T12:34:24.929Z,72.21
2022-10-19T12:35:24.895Z,72.83
2022-10-19T12:36:24.881Z,72.15
2022-10-19T12:37:24.867Z,72.25
2022-10-19T12:38:24.875Z,72.16
2022-10-19T12:39:24.859Z,72.04
2022-10-19T12:40:24.823Z,72.43
2022-10-19T12:41:24.823Z,72.37
2022-10-19T12:42:24.802Z,72.07
2022-10-19T12:43:24.797Z,72.31
2022-10-19T12:45:24.807Z,72.05
2022-10-19T12:46:24.763Z,71.84
2022-10-19T12:47:24.745Z,72.13
2022-10-19T12:48:24.804Z,72.29
2022-10-19T12:49:24.742Z,72.32
2022-10-19T12:50:24.750Z,71.83
2022-10-19T12:51:24.709Z,71.96
2022-10-19T12:52:24.693Z,72.21
2022-10-19T12:54:24.686Z,71.76
2022-10-19T12:55:24.653Z,72.02
2022-10-19T12:56:24.651Z,71.85
2022-10-19T12:57:24.632Z,71.50